createdAt,value
2022-11-09T00:01:18.214Z,40.87
2022-11-09T00:03:26.103Z,40.66
2022-11-09T00:05:31.904Z,40.50
2022-11-09T00:07:38.618Z,40.51
2022-11-09T00:09:45.081Z,38.58
2022-11-09T00:11:51.076Z,38.82
2022-11-09T00:13:57.721Z,38.58
2022-11-09T00:16:06.684Z,38.08
2022-11-09T00:18:12.726Z,37.44
2022-11-09T00:20:19.817Z,37.46
2022-11-09T00:22:25.562Z,36.54
2022-11-09T00:24:31.459Z,36.63
2022-11-09T00:26:38.026Z,36.84
2022-11-09T00:28:47.085Z,36.63
2022-11-09T00:30:52.856Z,37.60
2022-11-09T00:33:02.044Z,37.61
2022-11-09T00:35:10.034Z,39.31
2022-11-09T00:37:19.101Z,39.05
2022-11-09T00:39:25.729Z,38.99
2022-11-09T00:41:32.354Z,38.75
2022-11-09T00:43:38.658Z,38.50
2022-11-09T00:45:49.004Z,38.36
2022-11-09T00:47:54.776Z,37.65
2022-11-09T00:50:03.216Z,35.96
2022-11-09T00:52:09.855Z,34.20
2022-11-09T00:54:15.993Z,33.20
2022-11-09T00:56:21.812Z,32.88
2022-11-09T01:01:13.949Z,30.50
2022-11-09T01:03:21.919Z,30.44
2022-11-09T01:05:31.252Z,30.18
2022-11-09T01:07:37.016Z,30.45
2022-11-09T01:09:43.024Z,30.34
2022-11-09T01:12:20.645Z,31.02
2022-11-09T01:14:31.652Z,31.75
2022-11-09T01:16:38.503Z,30.63
2022-11-09T01:18:46.202Z,30.69
2022-11-09T01:20:54.891Z,30.72
2022-11-09T01:23:00.579Z,31.17
2022-11-09T01:25:12.099Z,31.67
2022-11-09T01:27:20.627Z,32.04
2022-11-09T01:29:26.434Z,33.26
2022-11-09T01:31:35.838Z,32.17
2022-11-09T01:33:42.660Z,32.50
2022-11-09T01:35:53.273Z,32.31
2022-11-09T01:37:59.783Z,32.07
2022-11-09T01:40:05.868Z,32.39
2022-11-09T01:42:12.257Z,33.44
2022-11-09T01:47:01.339Z,33.64
2022-11-09T01:49:16.599Z,34.54
2022-11-09T01:51:34.687Z,32.33
2022-11-09T01:53:49.063Z,32.80
2022-11-09T01:56:01.881Z,32.14
2022-11-09T01:58:16.145Z,31.97
2022-11-09T02:00:22.231Z,31.54
2022-11-09T02:03:28.719Z,30.50
2022-11-09T02:09:30.482Z,33.66
2022-11-09T02:11:41.635Z,29.91
2022-11-09T02:17:26.315Z,27.40
2022-11-09T02:19:36.165Z,26.63
2022-11-09T02:21:45.836Z,27.17
2022-11-09T02:23:56.694Z,27.83
2022-11-09T02:26:15.409Z,26.83
2022-11-09T02:28:21.546Z,25.98
2022-11-09T02:30:27.443Z,25.74
2022-11-09T02:32:35.366Z,24.82
2022-11-09T02:34:41.671Z,25.42
2022-11-09T02:36:50.717Z,25.63
2022-11-09T02:39:01.819Z,25.62
2022-11-09T02:41:08.346Z,25.26
2022-11-09T02:43:19.365Z,24.69
2022-11-09T02:45:29.307Z,25.61
2022-11-09T02:47:35.782Z,26.72
2022-11-09T02:49:49.511Z,24.45
2022-11-09T02:52:00.006Z,24.46
2022-11-09T02:54:07.930Z,23.93
2022-11-09T02:56:16.509Z,24.11
2022-11-09T02:58:24.055Z,24.49
2022-11-09T03:00:30.486Z,23.98
2022-11-09T03:02:38.203Z,23.72
2022-11-09T03:04:45.439Z,23.19
2022-11-09T03:06:51.522Z,24.19
2022-11-09T03:09:01.259Z,23.96
2022-11-09T03:11:09.108Z,23.68
2022-11-09T03:13:15.169Z,23.55
2022-11-09T03:15:21.119Z,23.38
2022-11-09T03:17:28.527Z,22.91
2022-11-09T03:19:34.309Z,22.83
2022-11-09T03:21:40.152Z,22.71
2022-11-09T03:23:46.691Z,22.43
2022-11-09T03:25:58.345Z,21.89
2022-11-09T03:28:07.259Z,23.01
2022-11-09T03:30:15.325Z,24.03
2022-11-09T03:32:21.685Z,23.75
2022-11-09T03:34:27.516Z,24.08
2022-11-09T03:36:34.059Z,24.48
2022-11-09T03:38:40.010Z,24.38
2022-11-09T03:40:45.861Z,24.80
2022-11-09T03:42:55.343Z,24.32
2022-11-09T03:45:02.824Z,23.31
2022-11-09T03:47:10.813Z,23.67
2022-11-09T03:49:33.938Z,23.73
2022-11-09T03:51:49.735Z,24.37
2022-11-09T03:53:57.008Z,25.15
2022-11-09T03:56:03.582Z,27.44
2022-11-09T03:58:16.092Z,25.67
2022-11-09T04:00:25.412Z,25.04
2022-11-09T04:02:32.034Z,24.17
2022-11-09T04:04:37.951Z,24.08
2022-11-09T04:06:43.766Z,25.19
2022-11-09T04:08:51.653Z,26.42
2022-11-09T04:10:58.354Z,25.27
2022-11-09T04:13:04.132Z,25.50
2022-11-09T04:15:16.156Z,25.60
2022-11-09T04:17:22.209Z,25.39
2022-11-09T04:19:29.329Z,25.78
2022-11-09T04:21:38.539Z,26.17
2022-11-09T04:23:44.256Z,26.28
2022-11-09T04:26:10.389Z,25.60
2022-11-09T04:28:19.701Z,27.20
2022-11-09T04:30:30.798Z,27.84
2022-11-09T04:32:36.577Z,28.07
2022-11-09T04:34:44.090Z,28.45
2022-11-09T04:36:49.846Z,29.31
2022-11-09T04:38:55.617Z,30.79
2022-11-09T04:41:08.555Z,31.01
2022-11-09T04:43:19.102Z,31.16
2022-11-09T04:45:31.189Z,31.85
2022-11-09T04:47:37.802Z,33.95
2022-11-09T04:49:43.490Z,35.81
2022-11-09T04:51:49.323Z,35.03
2022-11-09T04:53:56.484Z,36.59
2022-11-09T04:56:02.833Z,36.54
2022-11-09T05:01:17.225Z,32.91
2022-11-09T05:03:24.242Z,31.17
2022-11-09T05:05:30.245Z,31.30
2022-11-09T05:07:37.318Z,31.63
2022-11-09T05:09:50.344Z,29.57
2022-11-09T05:11:59.637Z,32.41
2022-11-09T05:14:08.255Z,30.74
2022-11-09T05:16:18.143Z,30.81
2022-11-09T05:18:23.845Z,30.17
2022-11-09T05:27:20.429Z,30.73
2022-11-09T05:29:38.858Z,30.82
2022-11-09T05:32:09.429Z,32.10
2022-11-09T05:34:43.825Z,33.93
2022-11-09T05:37:03.492Z,31.22
2022-11-09T05:39:13.633Z,31.35
2022-11-09T05:41:20.217Z,31.53
2022-11-09T05:43:33.164Z,30.80
2022-11-09T05:45:43.660Z,30.39
2022-11-09T05:47:52.380Z,30.42
2022-11-09T05:49:58.984Z,30.16
2022-11-09T05:52:12.003Z,29.78
2022-11-09T05:54:17.810Z,30.03
2022-11-09T05:56:24.548Z,29.66
2022-11-09T05:58:30.268Z,29.05
2022-11-09T06:00:36.796Z,29.58
2022-11-09T06:02:43.464Z,30.60
2022-11-09T06:04:51.774Z,30.01
2022-11-09T06:06:57.630Z,30.26
2022-11-09T06:09:07.414Z,31.12
2022-11-09T06:11:23.174Z,29.90
2022-11-09T06:13:30.539Z,30.04
2022-11-09T06:15:37.731Z,30.33
2022-11-09T06:17:43.458Z,29.17
2022-11-09T06:19:51.945Z,29.61
2022-11-09T06:21:58.496Z,28.84
2022-11-09T06:24:04.245Z,30.13
2022-11-09T06:26:13.536Z,30.48
2022-11-09T06:28:20.052Z,30.26
2022-11-09T06:30:26.264Z,31.00
2022-11-09T06:32:32.074Z,30.11
2022-11-09T06:34:38.623Z,30.06
2022-11-09T06:36:47.141Z,29.29
2022-11-09T06:38:53.686Z,29.44
2022-11-09T06:41:04.976Z,30.05
2022-11-09T06:43:19.209Z,30.54
2022-11-09T06:45:25.254Z,31.21
2022-11-09T06:47:31.915Z,30.94
2022-11-09T06:49:39.935Z,31.47
2022-11-09T06:51:53.048Z,32.33
2022-11-09T06:53:59.685Z,30.84
2022-11-09T06:56:08.330Z,32.75
2022-11-09T06:58:19.819Z,32.85
2022-11-09T07:00:32.928Z,33.34
2022-11-09T07:02:38.608Z,33.79
2022-11-09T07:04:44.281Z,33.10
2022-11-09T07:06:56.674Z,32.94
2022-11-09T07:09:03.673Z,33.40
2022-11-09T07:11:12.160Z,32.80
2022-11-09T07:13:18.981Z,32.48
2022-11-09T07:15:24.892Z,32.37
2022-11-09T07:17:33.794Z,32.05
2022-11-09T07:19:40.384Z,31.84
2022-11-09T07:21:46.050Z,31.61
2022-11-09T07:23:55.029Z,30.88
2022-11-09T07:26:02.199Z,31.09
2022-11-09T07:28:09.499Z,30.88
2022-11-09T07:30:16.650Z,31.92
2022-11-09T07:32:54.209Z,31.48
2022-11-09T07:34:55.704Z,30.92
2022-11-09T07:37:08.208Z,30.68
2022-11-09T07:39:18.120Z,30.51
2022-11-09T07:41:23.743Z,30.88
2022-11-09T07:43:33.711Z,31.54
2022-11-09T07:45:44.281Z,30.43
2022-11-09T07:47:50.044Z,29.27
2022-11-09T07:49:55.750Z,29.72
2022-11-09T07:52:02.259Z,31.33
2022-11-09T07:54:08.138Z,30.24
2022-11-09T07:56:16.607Z,29.58
2022-11-09T07:58:23.187Z,29.77
2022-11-09T08:00:31.876Z,27.93
2022-11-09T08:02:37.596Z,27.34
2022-11-09T08:04:45.284Z,26.85
2022-11-09T08:06:51.158Z,25.71
2022-11-09T08:08:58.026Z,27.22
2022-11-09T08:11:11.071Z,26.26
2022-11-09T08:13:19.743Z,25.50
2022-11-09T08:15:29.400Z,26.82
2022-11-09T08:17:36.246Z,25.77
2022-11-09T08:19:42.102Z,26.90
2022-11-09T08:21:47.905Z,26.21
2022-11-09T08:24:16.341Z,26.27
2022-11-09T08:26:22.144Z,28.07
2022-11-09T08:28:30.577Z,29.43
2022-11-09T08:30:37.309Z,30.06
2022-11-09T08:32:44.077Z,29.63
2022-11-09T08:34:54.252Z,28.70
2022-11-09T08:37:05.622Z,29.39
2022-11-09T08:39:12.439Z,28.45
2022-11-09T08:41:20.752Z,29.25
2022-11-09T08:43:27.647Z,31.91
2022-11-09T08:45:38.793Z,31.05
2022-11-09T08:47:46.334Z,30.30
2022-11-09T08:49:52.993Z,30.08
2022-11-09T08:51:58.742Z,30.95
2022-11-09T08:54:04.600Z,33.42
2022-11-09T08:56:13.151Z,35.42
2022-11-09T08:58:19.292Z,35.66
2022-11-09T09:00:35.506Z,31.44
2022-11-09T09:02:42.411Z,30.00
2022-11-09T09:04:48.271Z,27.71
2022-11-09T09:06:54.319Z,27.27
2022-11-09T09:09:01.075Z,26.44
2022-11-09T09:11:08.197Z,23.92
2022-11-09T09:13:13.948Z,23.95
2022-11-09T09:15:20.825Z,23.26
2022-11-09T09:17:29.771Z,22.88
2022-11-09T09:19:35.673Z,22.73
2022-11-09T09:21:46.900Z,23.05
2022-11-09T09:23:54.109Z,22.30
2022-11-09T09:26:01.185Z,21.48
2022-11-09T09:28:13.941Z,22.76
2022-11-09T09:30:20.897Z,22.87
2022-11-09T09:32:34.972Z,22.25
2022-11-09T09:34:41.678Z,22.43
2022-11-09T09:36:48.416Z,22.50
2022-11-09T09:38:56.379Z,21.96
2022-11-09T09:41:09.247Z,22.28
2022-11-09T09:43:41.552Z,22.82
2022-11-09T09:45:56.771Z,22.27
2022-11-09T09:48:24.143Z,22.24
2022-11-09T09:50:40.018Z,23.36
2022-11-09T09:53:22.274Z,24.79
2022-11-09T09:55:37.261Z,25.81
2022-11-09T09:57:50.958Z,26.11
2022-11-09T10:00:06.563Z,25.84
2022-11-09T10:02:34.583Z,24.05
2022-11-09T10:05:09.482Z,23.27
2022-11-09T10:07:33.868Z,22.64
2022-11-09T10:10:27.611Z,23.19
2022-11-09T10:13:31.107Z,21.82
2022-11-09T10:19:14.030Z,19.08
2022-11-09T10:21:49.665Z,19.57
2022-11-09T10:24:18.369Z,20.41
2022-11-09T10:26:55.255Z,19.65
2022-11-09T10:29:34.514Z,19.17
2022-11-09T10:32:34.425Z,19.29
2022-11-09T10:35:26.074Z,16.91
2022-11-09T10:40:58.270Z,16.20
2022-11-09T10:46:30.190Z,16.46
2022-11-09T10:49:34.849Z,16.05
2022-11-09T10:55:32.296Z,17.38
2022-11-09T10:58:32.041Z,17.31
2022-11-09T11:01:09.251Z,17.42
2022-11-09T11:03:45.751Z,17.69
2022-11-09T11:06:34.529Z,17.83
2022-11-09T11:09:31.992Z,18.11
2022-11-09T11:12:30.327Z,17.58
2022-11-09T11:15:24.042Z,18.04
2022-11-09T11:17:53.088Z,19.33
2022-11-09T11:27:04.314Z,19.27
2022-11-09T11:30:01.070Z,19.85
2022-11-09T11:32:44.231Z,19.27
2022-11-09T11:35:53.103Z,18.78
2022-11-09T11:38:36.566Z,18.66
2022-11-09T11:41:44.933Z,18.68
2022-11-09T11:44:32.574Z,18.04
2022-11-09T11:47:25.224Z,17.29
2022-11-09T11:50:46.434Z,17.43
2022-11-09T11:57:08.433Z,18.63
2022-11-09T12:00:34.715Z,18.72
2022-11-09T12:04:17.625Z,17.06
2022-11-09T12:07:27.096Z,16.60
2022-11-09T12:10:26.126Z,17.26
2022-11-09T12:13:25.208Z,16.83
2022-11-09T12:16:16.727Z,17.13
2022-11-09T12:22:48.728Z,17.52
2022-11-09T12:25:27.671Z,17.29
2022-11-09T12:28:31.863Z,17.26
2022-11-09T12:31:25.150Z,17.33
2022-11-09T12:34:08.273Z,17.33
2022-11-09T12:37:02.553Z,17.38
2022-11-09T12:39:51.261Z,16.85
2022-11-09T12:42:30.083Z,17.24
2022-11-09T12:45:08.134Z,16.93
2022-11-09T12:47:42.667Z,17.39
2022-11-09T12:50:14.965Z,18.21
2022-11-09T12:52:42.007Z,17.74
2022-11-09T12:55:10.240Z,16.87
2022-11-09T12:57:36.087Z,16.56
2022-11-09T13:00:04.603Z,16.42
2022-11-09T13:02:36.037Z,16.27
2022-11-09T13:05:04.348Z,16.12
2022-11-09T13:07:52.418Z,16.97
2022-11-09T13:10:34.634Z,16.13
2022-11-09T13:13:22.946Z,16.46
2022-11-09T13:16:09.138Z,16.28
2022-11-09T13:18:54.792Z,16.36
2022-11-09T13:21:39.598Z,17.14
2022-11-09T13:24:59.992Z,17.36
2022-11-09T13:27:47.743Z,17.73
2022-11-09T13:30:54.292Z,18.95
2022-11-09T13:33:29.251Z,18.97
2022-11-09T13:36:21.657Z,18.28
2022-11-09T13:38:48.178Z,20.21
2022-11-09T13:41:51.241Z,18.89
2022-11-09T13:44:32.874Z,19.56
2022-11-09T13:47:02.361Z,20.01
2022-11-09T13:49:49.841Z,20.37
2022-11-09T13:52:51.880Z,20.32
2022-11-09T13:55:39.620Z,19.96
2022-11-09T13:58:18.214Z,21.00
2022-11-09T14:00:49.781Z,21.08
2022-11-09T14:03:28.144Z,19.78
2022-11-09T14:06:00.393Z,25.26
2022-11-09T14:08:28.868Z,23.97
2022-11-09T14:12:03.078Z,24.00
2022-11-09T14:15:12.818Z,25.61
2022-11-09T14:17:56.122Z,24.26
2022-11-09T14:20:36.385Z,25.46
2022-11-09T14:23:01.600Z,24.98
2022-11-09T14:25:29.152Z,26.80
2022-11-09T14:28:00.565Z,24.09
2022-11-09T14:30:33.186Z,27.31
2022-11-09T14:33:00.051Z,29.78
2022-11-09T14:35:30.242Z,27.22
2022-11-09T14:37:58.486Z,27.77
2022-11-09T14:40:29.010Z,26.68
2022-11-09T14:43:00.162Z,25.80
2022-11-09T14:45:29.627Z,27.12
2022-11-09T14:48:00.734Z,34.20
2022-11-09T14:50:30.745Z,34.33
2022-11-09T14:52:58.448Z,34.36
2022-11-09T14:55:27.142Z,33.00
2022-11-09T14:57:57.996Z,33.24
2022-11-09T15:00:34.357Z,33.47
2022-11-09T15:03:00.936Z,36.02
2022-11-09T15:05:43.169Z,33.19
2022-11-09T15:08:18.528Z,34.23
2022-11-09T15:10:43.759Z,44.48
2022-11-09T15:13:09.258Z,41.33
2022-11-09T15:15:38.998Z,48.14
2022-11-09T15:18:05.302Z,35.53
2022-11-09T15:20:36.645Z,33.11
2022-11-09T15:23:04.256Z,31.81
2022-11-09T15:25:34.674Z,32.70
2022-11-09T15:28:18.417Z,34.72
2022-11-09T15:30:50.477Z,32.53
2022-11-09T15:33:30.799Z,31.82
2022-11-09T15:35:58.877Z,31.51
2022-11-09T15:38:34.938Z,31.27
2022-11-09T15:40:59.968Z,36.55
2022-11-09T15:43:25.281Z,36.50
2022-11-09T15:45:56.150Z,36.44
2022-11-09T15:48:20.833Z,36.63
2022-11-09T15:50:46.105Z,36.45
2022-11-09T15:53:12.547Z,41.03
2022-11-09T15:55:37.006Z,41.07
2022-11-09T15:58:02.153Z,45.37
2022-11-09T16:00:26.755Z,42.02
2022-11-09T16:02:54.054Z,46.72
2022-11-09T16:05:19.997Z,50.55
2022-11-09T16:07:51.594Z,48.76
2022-11-09T16:10:20.526Z,37.80
2022-11-09T16:12:46.618Z,39.68
2022-11-09T16:15:12.466Z,39.70
2022-11-09T16:17:36.668Z,42.20
2022-11-09T16:20:04.643Z,45.57
2022-11-09T16:22:33.780Z,43.52
2022-11-09T16:24:58.457Z,45.20
2022-11-09T16:30:12.619Z,46.74
2022-11-09T16:32:38.474Z,47.09
2022-11-09T16:35:26.000Z,47.19
2022-11-09T16:37:55.334Z,53.46
2022-11-09T16:40:20.735Z,57.57
2022-11-09T16:42:45.207Z,64.22
2022-11-09T16:45:15.992Z,62.78
2022-11-09T16:47:47.282Z,67.25
2022-11-09T16:50:15.076Z,58.07
2022-11-09T16:52:39.356Z,57.62
2022-11-09T16:55:03.911Z,61.78
2022-11-09T16:57:29.046Z,71.45
2022-11-09T16:59:53.432Z,89.01
2022-11-09T17:02:17.862Z,86.40
2022-11-09T17:04:42.737Z,73.77
2022-11-09T17:07:12.260Z,69.29
2022-11-09T17:09:38.051Z,71.37
2022-11-09T17:12:03.496Z,64.06
2022-11-09T17:14:31.225Z,55.04
2022-11-09T17:16:57.301Z,53.01
2022-11-09T17:19:22.689Z,54.34
2022-11-09T17:21:47.317Z,56.91
2022-11-09T17:24:14.665Z,58.62
2022-11-09T17:26:40.419Z,57.30
2022-11-09T17:29:04.983Z,61.19
2022-11-09T17:31:29.512Z,61.34
2022-11-09T17:33:59.873Z,63.00
2022-11-09T17:36:56.977Z,65.73
2022-11-09T17:39:16.285Z,66.48
2022-11-09T17:41:42.857Z,55.99
2022-11-09T17:44:07.593Z,61.59
2022-11-09T17:46:36.426Z,59.83
2022-11-09T17:49:02.666Z,60.10
2022-11-09T17:51:30.283Z,57.37
2022-11-09T17:53:55.620Z,56.70
2022-11-09T17:56:22.616Z,59.52
2022-11-09T17:58:48.601Z,57.88
2022-11-09T18:01:18.919Z,57.91
2022-11-09T18:03:44.002Z,56.90
2022-11-09T18:06:14.697Z,54.90
2022-11-09T18:08:43.538Z,58.24
2022-11-09T18:11:08.240Z,56.91
2022-11-09T18:13:35.862Z,51.46
2022-11-09T18:16:01.045Z,51.15
2022-11-09T18:18:25.585Z,49.49
2022-11-09T18:20:52.455Z,49.84
2022-11-09T18:23:17.552Z,48.68
2022-11-09T18:25:42.101Z,49.85
2022-11-09T18:28:07.163Z,48.36
2022-11-09T18:30:35.110Z,47.61
2022-11-09T18:32:59.385Z,47.78
2022-11-09T18:35:23.983Z,48.76
2022-11-09T18:37:49.828Z,46.99
2022-11-09T18:40:15.212Z,46.60
2022-11-09T18:42:39.802Z,47.07
2022-11-09T18:45:04.832Z,48.77
2022-11-09T18:47:31.559Z,45.57
2022-11-09T18:49:55.903Z,46.84
2022-11-09T18:52:21.714Z,46.81
2022-11-09T18:54:46.030Z,44.88
2022-11-09T18:57:14.809Z,44.06
2022-11-09T18:59:44.014Z,44.55
2022-11-09T19:02:09.139Z,45.07
2022-11-09T19:04:35.987Z,47.49
2022-11-09T19:07:01.330Z,46.84
2022-11-09T19:09:42.063Z,45.76
2022-11-09T19:12:11.636Z,43.91
2022-11-09T19:14:46.374Z,43.21
2022-11-09T19:17:16.457Z,45.42
2022-11-09T19:19:46.706Z,44.35
2022-11-09T19:22:19.820Z,46.06
2022-11-09T19:24:45.022Z,45.35
2022-11-09T19:27:09.263Z,51.82
2022-11-09T19:29:36.335Z,52.10
2022-11-09T19:32:00.640Z,56.08
2022-11-09T19:34:25.253Z,53.65
2022-11-09T19:36:53.230Z,54.48
2022-11-09T19:39:19.405Z,51.53
2022-11-09T19:41:45.022Z,48.32
2022-11-09T19:44:17.668Z,47.97
2022-11-09T19:46:43.067Z,51.12
2022-11-09T19:49:10.086Z,50.77
2022-11-09T19:51:35.949Z,52.58
2022-11-09T19:54:07.820Z,52.23
2022-11-09T19:56:37.139Z,51.77
2022-11-09T19:59:04.988Z,52.84
2022-11-09T20:01:31.307Z,51.97
2022-11-09T20:03:59.610Z,49.41
2022-11-09T20:06:27.225Z,50.78
2022-11-09T20:08:52.311Z,54.86
2022-11-09T20:11:43.850Z,56.20
2022-11-09T20:14:11.992Z,51.90
2022-11-09T20:16:42.396Z,53.08
2022-11-09T20:19:15.722Z,51.11
2022-11-09T20:21:41.424Z,47.76
2022-11-09T20:24:15.780Z,48.38
2022-11-09T20:26:44.589Z,45.88
2022-11-09T20:29:09.710Z,44.07
2022-11-09T20:31:34.188Z,45.49
2022-11-09T20:34:08.536Z,42.96
2022-11-09T20:36:46.060Z,42.17
2022-11-09T20:39:11.236Z,42.80
2022-11-09T20:41:36.651Z,41.67
2022-11-09T20:44:03.610Z,41.75
2022-11-09T20:46:34.346Z,41.14
2022-11-09T20:49:00.055Z,40.60
2022-11-09T20:51:28.952Z,40.68
2022-11-09T20:53:55.133Z,41.48
2022-11-09T20:56:25.401Z,41.51
2022-11-09T20:58:50.447Z,41.16
2022-11-09T21:01:22.719Z,41.31
2022-11-09T21:03:49.221Z,39.95
2022-11-09T21:06:16.361Z,41.31
2022-11-09T21:08:42.747Z,40.55
2022-11-09T21:11:14.249Z,38.59
2022-11-09T21:13:39.096Z,39.48
2022-11-09T21:16:20.182Z,39.51
2022-11-09T21:18:46.144Z,39.17
2022-11-09T21:21:20.006Z,39.18
2022-11-09T21:23:58.986Z,36.00
2022-11-09T21:26:36.220Z,35.91
2022-11-09T21:29:14.176Z,35.98
2022-11-09T21:31:43.986Z,34.18
2022-11-09T21:34:09.806Z,36.83
2022-11-09T21:36:36.400Z,35.21
2022-11-09T21:39:08.048Z,34.31
2022-11-09T21:41:43.144Z,34.77
2022-11-09T21:44:17.465Z,34.81
2022-11-09T21:46:47.502Z,35.10
2022-11-09T21:49:15.938Z,34.83
2022-11-09T21:51:43.636Z,33.74
2022-11-09T21:54:12.012Z,33.04
2022-11-09T21:56:50.628Z,34.72
2022-11-09T21:59:26.538Z,32.23
2022-11-09T22:01:55.250Z,31.76
2022-11-09T22:04:20.944Z,32.88
2022-11-09T22:06:51.197Z,31.90
2022-11-09T22:09:21.034Z,31.94
2022-11-09T22:11:59.804Z,32.16
2022-11-09T22:14:37.909Z,31.74
2022-11-09T22:17:18.599Z,31.37
2022-11-09T22:20:00.483Z,30.48
2022-11-09T22:22:30.698Z,30.25
2022-11-09T22:25:09.677Z,30.18
2022-11-09T22:27:41.543Z,29.43
2022-11-09T22:30:16.567Z,30.04
2022-11-09T22:32:44.138Z,29.20
2022-11-09T22:35:10.885Z,29.86
2022-11-09T22:37:36.346Z,29.20
2022-11-09T22:40:01.244Z,28.82
2022-11-09T22:42:26.812Z,28.12
2022-11-09T22:44:51.642Z,28.54
2022-11-09T22:47:17.009Z,28.73
2022-11-09T22:49:45.285Z,28.81
2022-11-09T22:52:10.591Z,29.63
2022-11-09T22:54:35.855Z,28.72
2022-11-09T22:57:02.281Z,28.56
2022-11-09T22:59:27.393Z,28.83
2022-11-09T23:01:54.860Z,28.96
2022-11-09T23:04:23.545Z,29.60
2022-11-09T23:06:51.788Z,28.74
2022-11-09T23:09:22.390Z,28.58
2022-11-09T23:11:47.800Z,27.70
2022-11-09T23:14:14.547Z,28.31
2022-11-09T23:16:40.755Z,28.17
2022-11-09T23:19:03.365Z,28.35
2022-11-09T23:21:31.653Z,28.71
2022-11-09T23:24:03.251Z,28.24
2022-11-09T23:26:29.988Z,28.14
2022-11-09T23:28:55.406Z,27.62
2022-11-09T23:31:25.214Z,28.16
2022-11-09T23:33:52.833Z,29.75
2022-11-09T23:36:17.994Z,31.97
2022-11-09T23:38:43.960Z,32.57
2022-11-09T23:41:14.859Z,31.65
2022-11-09T23:43:42.974Z,31.00
2022-11-09T23:46:16.517Z,31.11
2022-11-09T23:48:46.025Z,30.62
2022-11-09T23:51:12.865Z,29.02
2022-11-09T23:53:39.652Z,29.79
2022-11-09T23:56:05.877Z,29.91
2022-11-09T23:58:34.325Z,30.70
